Time;durP1;ratioP1;P1;durP2;ratioP2;P2;SDS_P1;SDS_P2;PMS_P1;PMS_P2;Temp;Humidity;BMP_temperature;BMP_pressure;BME280_temperature;BME280_humidity;BME280_pressure;Samples;Min_cycle;Max_cycle;Signal;HPM_P1;HPM_P2
2022/04/24 00:00:06;;;;;;;6.82;3.70;;;11.70;99.90;;;;;;5113188;27;20047;-77
2022/04/24 00:02:32;;;;;;;7.03;3.55;;;11.70;99.90;;;;;;5116729;27;20030;-77
2022/04/24 00:04:58;;;;;;;6.03;3.53;;;11.70;99.90;;;;;;5122850;27;20053;-78
2022/04/24 00:07:24;;;;;;;6.90;4.78;;;11.70;99.90;;;;;;5122570;27;20027;-77
2022/04/24 00:09:50;;;;;;;7.20;3.67;;;11.70;99.90;;;;;;5118590;27;20100;-77
2022/04/24 00:12:16;;;;;;;9.27;4.15;;;11.60;99.90;;;;;;5122997;27;20035;-77
2022/04/24 00:14:47;;;;;;;8.07;4.10;;;11.70;99.90;;;;;;5123865;27;20572;-78
2022/04/24 00:17:16;;;;;;;8.00;4.00;;;11.60;99.90;;;;;;5127748;27;20087;-77
2022/04/24 00:19:43;;;;;;;8.70;3.83;;;11.60;99.90;;;;;;5127994;27;20086;-77
2022/04/24 00:22:09;;;;;;;8.50;4.40;;;11.60;99.90;;;;;;5132119;27;20035;-77
2022/04/24 00:24:35;;;;;;;7.35;3.97;;;11.60;99.90;;;;;;5132797;27;20015;-77
2022/04/24 00:27:01;;;;;;;6.93;3.72;;;11.60;99.90;;;;;;5131998;27;20088;-78
2022/04/24 00:29:26;;;;;;;8.05;4.45;;;11.60;99.90;;;;;;5131154;27;20019;-77
2022/04/24 00:31:52;;;;;;;8.57;4.75;;;11.50;99.90;;;;;;5122738;27;20028;-77
2022/04/24 00:34:18;;;;;;;8.00;4.25;;;11.50;99.90;;;;;;5131808;27;20038;-77
2022/04/24 00:36:46;;;;;;;7.22;4.78;;;11.60;99.90;;;;;;5131394;27;20038;-78
2022/04/24 00:39:16;;;;;;;7.13;3.72;;;11.60;99.90;;;;;;5131812;27;20035;-77
2022/04/24 00:41:49;;;;;;;9.80;5.50;;;11.60;99.90;;;;;;5131755;27;20031;-77
2022/04/24 00:44:17;;;;;;;8.70;4.00;;;11.60;99.90;;;;;;5130643;27;20022;-78
2022/04/24 00:47:00;;;;;;;8.82;4.22;;;11.70;99.90;;;;;;5131956;27;20049;-78
2022/04/24 00:49:26;;;;;;;8.63;4.05;;;11.60;99.90;;;;;;5116556;27;20023;-78
2022/04/24 00:51:53;;;;;;;8.25;3.63;;;11.50;99.90;;;;;;5131989;27;20039;-78
2022/04/24 00:54:19;;;;;;;9.13;3.80;;;11.40;99.90;;;;;;5132179;27;20512;-78
2022/04/24 00:56:48;;;;;;;8.40;3.80;;;11.50;99.90;;;;;;5124548;28;20028;-78
2022/04/24 00:59:15;;;;;;;8.25;3.88;;;11.40;99.90;;;;;;5122904;28;20023;-78
2022/04/24 01:01:41;;;;;;;8.00;3.90;;;11.50;99.90;;;;;;5131506;27;20031;-78
2022/04/24 01:04:09;;;;;;;7.13;3.50;;;11.60;99.90;;;;;;5131570;28;20031;-78
2022/04/24 01:06:40;;;;;;;8.43;3.28;;;11.50;99.90;;;;;;5132164;27;20446;-77
2022/04/24 01:09:10;;;;;;;7.72;3.50;;;11.50;99.90;;;;;;5131893;27;20053;-77
2022/04/24 01:11:36;;;;;;;8.77;3.25;;;11.50;99.90;;;;;;5131365;27;20084;-77
2022/04/24 01:14:02;;;;;;;7.22;3.33;;;11.50;99.90;;;;;;5126797;28;20043;-77
2022/04/24 01:16:29;;;;;;;8.90;3.45;;;11.50;99.90;;;;;;5132164;28;20047;-78
2022/04/24 01:18:56;;;;;;;5.65;3.03;;;11.40;99.90;;;;;;5131167;27;20096;-78
2022/04/24 01:21:22;;;;;;;7.18;2.78;;;11.40;99.90;;;;;;5131023;28;20119;-78
2022/04/24 01:23:48;;;;;;;5.78;2.80;;;11.40;99.90;;;;;;5131665;28;20103;-78
2022/04/24 01:26:16;;;;;;;6.53;2.90;;;11.30;99.90;;;;;;5128167;28;20114;-78
2022/04/24 01:28:42;;;;;;;6.70;2.83;;;11.40;99.90;;;;;;5118232;28;20023;-78
2022/04/24 01:31:08;;;;;;;5.28;2.40;;;11.40;99.90;;;;;;5131408;27;20408;-78
2022/04/24 01:33:34;;;;;;;5.45;2.50;;;11.40;99.90;;;;;;5132286;28;20509;-78
2022/04/24 01:36:00;;;;;;;7.75;3.08;;;11.40;99.90;;;;;;5121998;28;20024;-77
2022/04/24 01:38:28;;;;;;;5.18;2.42;;;11.40;99.90;;;;;;5126605;28;20098;-78
2022/04/24 01:40:54;;;;;;;6.32;2.80;;;11.30;99.90;;;;;;5131107;27;20106;-78
2022/04/24 01:43:20;;;;;;;7.15;2.70;;;11.30;99.90;;;;;;5131014;27;20106;-78
2022/04/24 01:45:46;;;;;;;5.97;2.80;;;11.30;99.90;;;;;;5131984;27;20073;-78
2022/04/24 01:48:12;;;;;;;6.25;2.95;;;11.30;99.90;;;;;;5131296;27;20027;-78
2022/04/24 01:50:38;;;;;;;7.28;2.83;;;11.40;99.90;;;;;;5131359;27;20031;-78
2022/04/24 01:53:04;;;;;;;6.88;3.15;;;11.40;99.90;;;;;;5131034;27;20189;-78
2022/04/24 01:55:29;;;;;;;6.25;3.13;;;11.40;99.90;;;;;;5130384;27;20474;-78
2022/04/24 01:57:55;;;;;;;6.25;3.20;;;11.40;99.90;;;;;;5116866;27;20034;-78
2022/04/24 02:00:21;;;;;;;7.30;3.70;;;11.30;99.90;;;;;;5134397;27;20027;-78
2022/04/24 02:02:47;;;;;;;6.85;3.42;;;11.30;99.90;;;;;;5134709;27;20015;-79
2022/04/24 02:05:17;;;;;;;7.72;3.50;;;11.30;99.90;;;;;;5131752;27;20524;-78
2022/04/24 02:07:47;;;;;;;7.55;3.10;;;11.40;99.90;;;;;;5121796;27;20023;-78
2022/04/24 02:10:12;;;;;;;7.97;3.63;;;11.40;99.90;;;;;;5116780;27;20458;-78
2022/04/24 02:12:40;;;;;;;8.30;3.72;;;11.30;99.90;;;;;;5135224;27;20122;-78
2022/04/24 02:15:09;;;;;;;9.50;4.00;;;11.30;99.90;;;;;;5124035;27;20016;-78
2022/04/24 02:17:35;;;;;;;9.20;4.10;;;11.30;99.90;;;;;;5129061;27;20023;-78
2022/04/24 02:20:01;;;;;;;7.68;3.78;;;11.20;99.90;;;;;;5134727;27;20478;-78
2022/04/24 02:22:33;;;;;;;10.68;4.13;;;11.40;99.90;;;;;;5134303;27;20031;-78
2022/04/24 02:25:00;;;;;;;7.65;3.80;;;11.30;99.90;;;;;;5134240;27;20027;-78
2022/04/24 02:27:27;;;;;;;10.00;4.65;;;11.20;99.90;;;;;;5134919;27;20027;-78
2022/04/24 02:29:53;;;;;;;10.10;4.70;;;11.20;99.90;;;;;;5134436;27;20477;-78
2022/04/24 02:32:18;;;;;;;7.35;3.90;;;11.20;99.90;;;;;;5134145;27;20042;-78
2022/04/24 02:34:44;;;;;;;9.10;3.97;;;11.20;99.90;;;;;;5134211;27;20454;-78
2022/04/24 02:37:10;;;;;;;9.27;4.20;;;11.20;99.90;;;;;;5132383;27;20030;-79
2022/04/24 02:39:36;;;;;;;6.38;4.03;;;11.30;99.90;;;;;;5134140;27;20031;-79
2022/04/24 02:42:02;;;;;;;11.27;4.88;;;11.30;99.90;;;;;;5133878;27;20027;-78
2022/04/24 02:44:28;;;;;;;8.70;3.95;;;11.30;99.90;;;;;;5128967;27;20020;-78
2022/04/24 02:46:53;;;;;;;10.45;4.45;;;11.40;99.90;;;;;;5122892;27;20520;-78
2022/04/24 02:49:19;;;;;;;15.15;8.23;;;11.30;99.90;;;;;;5134147;27;20055;-78
2022/04/24 02:51:45;;;;;;;11.88;4.57;;;11.30;99.90;;;;;;5130403;27;20524;-78
2022/04/24 02:54:11;;;;;;;10.73;5.00;;;11.20;99.90;;;;;;5122141;27;20314;-78
2022/04/24 02:56:37;;;;;;;9.25;4.45;;;11.20;99.90;;;;;;5128582;27;20026;-78
2022/04/24 02:59:03;;;;;;;9.57;4.95;;;11.30;99.90;;;;;;5126518;27;20112;-78
2022/04/24 03:01:30;;;;;;;12.00;4.55;;;11.30;99.90;;;;;;5133715;27;20481;-78
2022/04/24 03:03:56;;;;;;;10.60;4.93;;;11.30;99.90;;;;;;5134187;27;20498;-78
2022/04/24 03:06:23;;;;;;;11.25;5.82;;;11.20;99.90;;;;;;5132176;27;20492;-78
2022/04/24 03:08:48;;;;;;;8.63;5.47;;;11.30;99.90;;;;;;5133193;27;20225;-78
2022/04/24 03:11:17;;;;;;;10.63;6.20;;;11.30;99.90;;;;;;5133124;27;20109;-78
2022/04/24 03:13:46;;;;;;;10.50;5.93;;;11.20;99.90;;;;;;5133569;27;20039;-78
2022/04/24 03:16:12;;;;;;;14.73;7.60;;;11.20;99.90;;;;;;5133593;27;20435;-78
2022/04/24 03:18:37;;;;;;;10.73;6.53;;;11.20;99.90;;;;;;5134025;27;20080;-78
2022/04/24 03:21:03;;;;;;;10.85;6.10;;;11.20;99.90;;;;;;5133164;27;20031;-78
2022/04/24 03:23:29;;;;;;;15.10;8.35;;;11.20;99.90;;;;;;5127909;27;20059;-78
2022/04/24 03:25:54;;;;;;;15.32;8.07;;;11.20;99.90;;;;;;5122015;27;20079;-77
2022/04/24 03:28:21;;;;;;;10.35;5.72;;;11.20;99.90;;;;;;5133175;27;20401;-78
2022/04/24 03:30:46;;;;;;;11.15;5.70;;;11.30;99.90;;;;;;5133734;27;20075;-78
2022/04/24 03:33:12;;;;;;;12.23;6.57;;;11.20;99.90;;;;;;5122181;27;20077;-78
2022/04/24 03:35:38;;;;;;;11.00;6.03;;;11.20;99.90;;;;;;5127812;27;20027;-78
2022/04/24 03:38:04;;;;;;;12.63;5.78;;;11.20;99.90;;;;;;5130252;27;20072;-78
2022/04/24 03:40:29;;;;;;;11.13;6.45;;;11.30;99.90;;;;;;5133252;27;20025;-79
2022/04/24 03:42:55;;;;;;;12.40;6.95;;;11.20;99.90;;;;;;5132963;27;20026;-78
2022/04/24 03:45:21;;;;;;;10.55;5.22;;;11.20;99.90;;;;;;5133169;27;20525;-78
2022/04/24 03:47:47;;;;;;;11.38;4.00;;;11.20;99.90;;;;;;5121267;27;20474;-78
2022/04/24 03:50:16;;;;;;;8.30;3.88;;;11.20;99.90;;;;;;5124010;27;20414;-78
2022/04/24 03:52:42;;;;;;;7.78;4.40;;;11.20;99.90;;;;;;5132208;27;20458;-78
2022/04/24 03:55:08;;;;;;;8.20;4.65;;;11.20;99.90;;;;;;5132665;27;20047;-78
2022/04/24 03:57:34;;;;;;;10.40;5.40;;;11.20;99.90;;;;;;5133443;27;20023;-78
2022/04/24 04:00:00;;;;;;;9.93;4.78;;;11.20;99.90;;;;;;5132578;27;20054;-78
2022/04/24 04:02:26;;;;;;;13.02;6.30;;;11.20;99.90;;;;;;5127838;27;20020;-78
2022/04/24 04:04:52;;;;;;;10.88;5.68;;;11.30;99.90;;;;;;5121055;27;20491;-78
2022/04/24 04:07:18;;;;;;;11.68;5.63;;;11.30;99.90;;;;;;5115776;27;20031;-78
2022/04/24 04:09:44;;;;;;;10.77;4.20;;;11.40;99.90;;;;;;5133296;27;20031;-78
2022/04/24 04:12:13;;;;;;;10.65;4.75;;;11.30;99.90;;;;;;5120875;27;20024;-78
2022/04/24 04:14:39;;;;;;;8.13;4.22;;;11.20;99.90;;;;;;5127698;27;20511;-78
2022/04/24 04:17:05;;;;;;;9.05;3.80;;;11.30;99.90;;;;;;5132062;27;20103;-78
2022/04/24 04:19:31;;;;;;;7.63;3.92;;;11.20;99.90;;;;;;5132261;27;20039;-79
2022/04/24 04:21:57;;;;;;;5.15;2.20;;;11.20;99.90;;;;;;5131600;27;20015;-78
2022/04/24 04:24:22;;;;;;;6.78;3.00;;;11.20;99.90;;;;;;5132725;27;20027;-78
2022/04/24 04:26:48;;;;;;;5.85;2.75;;;11.20;99.90;;;;;;5132434;27;20019;-78
2022/04/24 04:29:16;;;;;;;6.90;3.15;;;11.20;99.90;;;;;;5124973;27;20500;-78
2022/04/24 04:31:42;;;;;;;6.00;3.33;;;11.30;99.90;;;;;;5132034;27;20529;-78
2022/04/24 04:34:08;;;;;;;7.22;3.30;;;11.30;99.90;;;;;;5131910;27;20066;-78
2022/04/24 04:36:33;;;;;;;6.18;3.40;;;11.30;99.90;;;;;;5132673;27;20490;-78
2022/04/24 04:38:59;;;;;;;6.45;3.10;;;11.30;99.90;;;;;;5129684;27;20393;-78
2022/04/24 04:41:25;;;;;;;8.63;3.10;;;11.20;99.90;;;;;;5127184;27;20065;-78
2022/04/24 04:43:51;;;;;;;6.07;3.08;;;11.20;99.90;;;;;;5120646;27;20110;-78
2022/04/24 04:46:17;;;;;;;5.75;3.25;;;11.30;99.90;;;;;;5131984;27;20039;-78
2022/04/24 04:48:42;;;;;;;8.70;3.40;;;11.30;99.90;;;;;;5115732;27;20024;-78
2022/04/24 04:51:08;;;;;;;7.40;3.40;;;11.20;99.90;;;;;;5120229;28;20031;-78
2022/04/24 04:53:34;;;;;;;7.57;4.03;;;11.20;99.90;;;;;;5125947;27;20031;-78
2022/04/24 04:56:00;;;;;;;6.40;3.65;;;11.20;99.90;;;;;;5131776;27;20031;-78
2022/04/24 04:58:26;;;;;;;5.40;2.63;;;11.20;99.90;;;;;;5131837;27;20110;-78
2022/04/24 05:00:52;;;;;;;5.45;3.00;;;11.20;99.90;;;;;;5132129;27;20019;-78
2022/04/24 05:03:18;;;;;;;5.88;3.42;;;11.20;99.90;;;;;;5119545;28;20024;-78
2022/04/24 05:05:49;;;;;;;8.52;2.97;;;11.20;99.90;;;;;;5126732;28;20022;-78
2022/04/24 05:08:15;;;;;;;7.32;3.17;;;11.20;99.90;;;;;;5131859;27;20024;-78
2022/04/24 05:10:40;;;;;;;6.65;3.08;;;11.30;99.90;;;;;;5131406;28;20035;-78
2022/04/24 05:13:06;;;;;;;6.85;3.08;;;11.30;99.90;;;;;;5131494;27;20528;-78
2022/04/24 05:15:32;;;;;;;6.35;3.13;;;11.30;99.90;;;;;;5132425;27;20072;-78
2022/04/24 05:17:58;;;;;;;5.60;2.80;;;11.30;99.90;;;;;;5131568;27;20027;-79
2022/04/24 05:20:23;;;;;;;6.80;2.83;;;11.40;99.90;;;;;;5126895;28;20040;-78
2022/04/24 05:22:49;;;;;;;6.05;2.75;;;11.30;99.90;;;;;;5119633;28;20123;-78
2022/04/24 05:25:15;;;;;;;6.15;2.85;;;11.30;99.90;;;;;;5131473;27;20034;-78
2022/04/24 05:27:41;;;;;;;7.13;2.72;;;11.30;99.90;;;;;;5132413;27;20397;-78
2022/04/24 05:30:08;;;;;;;6.20;2.50;;;11.40;99.90;;;;;;5123570;27;20038;-78
2022/04/24 05:32:48;;;;;;;3.85;2.13;;;11.40;99.90;;;;;;5129676;27;20499;-78
2022/04/24 05:35:17;;;;;;;4.45;2.00;;;11.30;99.90;;;;;;5135001;27;20015;-78
2022/04/24 05:37:47;;;;;;;4.35;2.03;;;11.30;99.90;;;;;;5133544;27;20531;-79
2022/04/24 05:40:16;;;;;;;4.65;2.15;;;11.40;99.90;;;;;;5135349;27;20516;-78
2022/04/24 05:42:53;;;;;;;7.72;2.47;;;11.40;99.90;;;;;;5135884;27;20114;-78
2022/04/24 05:45:22;;;;;;;3.75;2.10;;;11.40;99.90;;;;;;5123057;27;20047;-78
2022/04/24 05:47:49;;;;;;;4.05;2.20;;;11.40;99.90;;;;;;5131654;27;20044;-78
2022/04/24 05:50:15;;;;;;;4.43;2.10;;;11.50;99.90;;;;;;5134796;27;20027;-78
2022/04/24 05:52:41;;;;;;;5.25;2.40;;;11.50;99.90;;;;;;5135172;27;20042;-78
2022/04/24 05:55:08;;;;;;;5.10;2.25;;;11.50;99.90;;;;;;5135422;27;20439;-78
2022/04/24 05:57:37;;;;;;;4.15;2.30;;;11.50;99.90;;;;;;5135719;27;20027;-78
2022/04/24 06:00:08;;;;;;;5.75;3.03;;;11.60;99.90;;;;;;5125106;27;20114;-77
2022/04/24 06:02:34;;;;;;;5.18;2.80;;;11.60;99.90;;;;;;5128750;27;20019;-78
2022/04/24 06:05:00;;;;;;;7.13;2.90;;;11.60;99.90;;;;;;5134964;27;20049;-78
2022/04/24 06:07:26;;;;;;;4.90;2.53;;;11.60;99.90;;;;;;5135176;27;20058;-78
2022/04/24 06:09:52;;;;;;;5.22;3.20;;;11.60;99.90;;;;;;5119210;27;20062;-81
2022/04/24 06:12:17;;;;;;;5.43;2.80;;;11.60;99.90;;;;;;5134993;27;20027;-78
2022/04/24 06:14:43;;;;;;;6.53;3.10;;;11.70;99.90;;;;;;5134351;27;20035;-78
2022/04/24 06:17:09;;;;;;;6.63;3.10;;;11.60;99.90;;;;;;5133829;27;20019;-79
2022/04/24 06:19:35;;;;;;;8.90;3.03;;;11.50;99.90;;;;;;5133958;27;20417;-78
2022/04/24 06:22:01;;;;;;;6.63;3.05;;;11.50;99.90;;;;;;5134168;27;20050;-79
2022/04/24 06:24:27;;;;;;;7.40;2.83;;;11.50;99.90;;;;;;5134979;27;20063;-78
2022/04/24 06:26:53;;;;;;;6.70;2.97;;;11.60;99.90;;;;;;5124409;27;20027;-78
2022/04/24 06:29:18;;;;;;;5.30;2.88;;;11.50;99.90;;;;;;5126291;27;20493;-78
2022/04/24 06:31:44;;;;;;;6.43;3.25;;;11.50;99.90;;;;;;5134158;27;20023;-77
2022/04/24 06:34:10;;;;;;;5.70;2.72;;;11.40;99.90;;;;;;5130640;27;20039;-78
2022/04/24 06:36:36;;;;;;;6.95;3.17;;;11.40;99.90;;;;;;5120292;27;20024;-79
2022/04/24 06:39:02;;;;;;;7.55;3.13;;;11.40;99.90;;;;;;5126595;27;20050;-79
2022/04/24 06:41:28;;;;;;;5.55;2.50;;;11.50;99.90;;;;;;5126604;27;20042;-79
2022/04/24 06:43:54;;;;;;;6.28;2.40;;;11.50;99.90;;;;;;5122156;27;20031;-78
2022/04/24 06:46:23;;;;;;;3.83;2.13;;;11.40;99.90;;;;;;5133477;27;20023;-78
2022/04/24 06:48:52;;;;;;;6.97;1.90;;;11.40;99.90;;;;;;5130568;27;20056;-78
2022/04/24 06:51:18;;;;;;;3.65;2.10;;;11.50;99.90;;;;;;5134169;27;20031;-78
2022/04/24 06:53:44;;;;;;;5.88;2.30;;;11.50;99.90;;;;;;5133808;27;20038;-78
2022/04/24 06:56:10;;;;;;;5.97;2.10;;;11.50;99.90;;;;;;5133845;27;20511;-78
2022/04/24 06:58:35;;;;;;;4.22;2.00;;;11.50;99.90;;;;;;5133876;27;20043;-78
2022/04/24 07:01:01;;;;;;;4.47;2.28;;;11.60;99.90;;;;;;5133301;27;20047;-77
2022/04/24 07:03:29;;;;;;;4.75;2.28;;;11.60;99.90;;;;;;5134303;27;20072;-77
2022/04/24 07:05:56;;;;;;;4.95;2.30;;;11.60;99.90;;;;;;5133868;27;20035;-78
2022/04/24 07:08:24;;;;;;;3.58;1.95;;;11.60;99.90;;;;;;5133414;27;20071;-78
2022/04/24 07:10:53;;;;;;;4.32;2.05;;;11.50;99.90;;;;;;5134025;27;20034;-78
2022/04/24 07:13:22;;;;;;;4.15;1.73;;;11.60;99.90;;;;;;5115043;27;20447;-78
2022/04/24 07:15:48;;;;;;;4.25;2.00;;;11.50;99.90;;;;;;5129431;27;20023;-77
2022/04/24 07:18:14;;;;;;;4.63;2.10;;;11.60;99.90;;;;;;5122018;27;20042;-74
2022/04/24 07:20:40;;;;;;;6.03;2.22;;;11.60;99.90;;;;;;5128059;27;20047;-74
2022/04/24 07:23:05;;;;;;;3.63;1.83;;;11.70;99.90;;;;;;5133551;27;20031;-74
2022/04/24 07:25:43;;;;;;;5.70;2.30;;;11.70;99.90;;;;;;5133693;27;20052;-74
2022/04/24 07:28:13;;;;;;;3.70;2.40;;;11.70;99.90;;;;;;5116572;27;20031;-74
2022/04/24 07:30:40;;;;;;;3.75;1.83;;;11.70;99.90;;;;;;5133059;27;20047;-74
2022/04/24 07:33:06;;;;;;;3.45;1.83;;;11.60;99.90;;;;;;5133088;27;20208;-74
2022/04/24 07:35:37;;;;;;;5.25;1.80;;;11.80;99.90;;;;;;5133105;27;20019;-74
2022/04/24 07:38:03;;;;;;;4.82;2.08;;;11.70;99.90;;;;;;5130678;27;20516;-74
2022/04/24 07:40:31;;;;;;;4.00;2.10;;;11.80;99.90;;;;;;5133085;27;20015;-74
2022/04/24 07:43:02;;;;;;;4.20;2.20;;;11.80;99.90;;;;;;5133035;27;20050;-74
2022/04/24 07:45:30;;;;;;;3.80;1.88;;;11.80;99.90;;;;;;5132417;27;20038;-74
2022/04/24 07:47:57;;;;;;;5.53;2.22;;;11.80;99.90;;;;;;5133145;27;20027;-74
2022/04/24 07:50:25;;;;;;;5.25;2.08;;;11.90;99.90;;;;;;5132683;27;20133;-74
2022/04/24 07:52:52;;;;;;;5.90;2.28;;;12.00;99.90;;;;;;5132287;27;20118;-74
2022/04/24 07:55:22;;;;;;;4.75;2.40;;;11.90;99.90;;;;;;5133155;27;20027;-76
2022/04/24 07:57:49;;;;;;;3.97;2.08;;;12.00;99.90;;;;;;5128822;27;20504;-78
2022/04/24 08:00:16;;;;;;;3.60;2.08;;;12.10;99.90;;;;;;5132146;27;20034;-79
2022/04/24 08:02:56;;;;;;;5.45;2.22;;;12.10;99.90;;;;;;5131838;27;20064;-81
2022/04/24 08:05:39;;;;;;;5.35;2.42;;;12.30;99.90;;;;;;5127734;27;20501;-81
2022/04/24 08:08:05;;;;;;;4.38;2.38;;;12.30;99.90;;;;;;5117449;27;20035;-81
2022/04/24 08:10:42;;;;;;;6.85;2.53;;;12.30;99.90;;;;;;5126546;27;20081;-82
2022/04/24 08:13:08;;;;;;;5.63;2.90;;;12.30;99.90;;;;;;5128140;27;20066;-82
2022/04/24 08:15:36;;;;;;;5.97;2.70;;;12.40;99.90;;;;;;5122180;27;20023;-82
2022/04/24 08:18:03;;;;;;;5.60;2.75;;;12.50;99.90;;;;;;5125844;27;20434;-82
2022/04/24 08:20:29;;;;;;;5.53;1.88;;;12.50;99.90;;;;;;5124194;27;20039;-82
2022/04/24 08:22:59;;;;;;;3.58;1.92;;;12.50;99.90;;;;;;5125320;27;20037;-82
2022/04/24 08:25:26;;;;;;;4.07;2.03;;;12.40;99.90;;;;;;5124491;27;20076;-82
2022/04/24 08:27:53;;;;;;;4.15;1.77;;;12.30;99.90;;;;;;5126734;27;20235;-81
2022/04/24 08:30:21;;;;;;;3.17;1.70;;;12.30;99.90;;;;;;5126557;27;20479;-81
2022/04/24 08:32:47;;;;;;;3.58;1.73;;;12.30;99.90;;;;;;5125262;27;20529;-81
2022/04/24 08:35:14;;;;;;;6.15;2.38;;;12.30;99.90;;;;;;5125292;27;20030;-81
2022/04/24 08:37:41;;;;;;;5.35;2.00;;;12.40;99.90;;;;;;5126098;27;20047;-81
2022/04/24 08:40:09;;;;;;;6.50;2.47;;;12.40;99.90;;;;;;5126541;27;20035;-87
2022/04/24 08:42:35;;;;;;;5.40;2.28;;;12.50;99.90;;;;;;5129280;27;20382;-81
2022/04/24 08:45:02;;;;;;;4.70;2.30;;;12.50;99.90;;;;;;5125190;27;20037;-80
2022/04/24 08:47:28;;;;;;;4.63;2.30;;;12.50;99.90;;;;;;5124374;27;20027;-86
2022/04/24 08:50:01;;;;;;;7.25;3.30;;;12.70;99.90;;;;;;5122894;27;20043;-86
2022/04/24 08:52:29;;;;;;;3.20;2.03;;;12.90;99.90;;;;;;5110165;28;20039;-83
2022/04/24 08:54:56;;;;;;;7.97;2.20;;;12.90;99.90;;;;;;5128649;27;20397;-83
2022/04/24 08:57:26;;;;;;;4.97;1.60;;;13.10;99.90;;;;;;5126582;27;20041;-88
2022/04/24 08:59:54;;;;;;;2.75;1.67;;;13.20;99.90;;;;;;5126088;27;20541;-86
2022/04/24 09:02:20;;;;;;;4.82;3.00;;;13.20;99.90;;;;;;5125887;27;20523;-86
2022/04/24 09:04:46;;;;;;;3.15;1.95;;;13.40;99.90;;;;;;5127673;27;20027;-87
2022/04/24 09:07:17;;;;;;;5.93;2.38;;;13.60;99.90;;;;;;5129962;27;20034;-88
2022/04/24 09:09:53;;;;;;;4.60;2.05;;;13.60;99.90;;;;;;5128963;27;20066;-88
2022/04/24 09:12:24;;;;;;;3.58;1.83;;;13.70;99.90;;;;;;5131484;27;20031;-87
2022/04/24 09:14:54;;;;;;;4.60;2.20;;;13.70;99.90;;;;;;5130844;27;20397;-88
2022/04/24 09:17:25;;;;;;;4.47;2.13;;;13.80;99.90;;;;;;5129981;27;20035;-87
2022/04/24 09:19:52;;;;;;;5.05;2.75;;;13.80;99.90;;;;;;5129479;27;20832;-87
2022/04/24 09:22:18;;;;;;;6.70;2.40;;;13.60;99.90;;;;;;5119671;27;20539;-87
2022/04/24 09:24:56;;;;;;;3.17;1.80;;;13.60;99.90;;;;;;5132496;27;20113;-85
2022/04/24 09:27:30;;;;;;;4.38;1.75;;;13.60;99.90;;;;;;5129352;27;20413;-87
2022/04/24 09:29:58;;;;;;;5.90;1.83;;;13.60;99.90;;;;;;5129091;27;20023;-86
2022/04/24 09:32:25;;;;;;;2.72;1.65;;;13.60;99.90;;;;;;5130061;27;20046;-85
2022/04/24 09:34:52;;;;;;;4.68;2.60;;;13.60;99.90;;;;;;5128913;27;20469;-85
2022/04/24 09:37:19;;;;;;;4.18;2.00;;;13.80;99.90;;;;;;5129305;27;20032;-83
2022/04/24 09:39:45;;;;;;;3.83;1.58;;;13.80;99.90;;;;;;5131678;27;20035;-84
2022/04/24 09:42:13;;;;;;;2.97;1.52;;;13.90;99.90;;;;;;5128366;27;20459;-86
2022/04/24 09:44:53;;;;;;;2.83;1.77;;;14.00;99.90;;;;;;5129249;27;20102;-79
2022/04/24 09:47:24;;;;;;;3.70;2.05;;;14.20;99.90;;;;;;5128568;27;20518;-74
2022/04/24 09:49:50;;;;;;;4.55;2.10;;;14.20;99.90;;;;;;5129014;27;20029;-75
2022/04/24 09:52:18;;;;;;;3.53;1.35;;;14.30;99.90;;;;;;5129326;27;20501;-72
2022/04/24 09:54:45;;;;;;;2.88;1.50;;;14.40;99.90;;;;;;5130927;27;20556;-72
2022/04/24 09:57:13;;;;;;;3.25;1.38;;;14.30;99.90;;;;;;5128910;27;20394;-75
2022/04/24 09:59:41;;;;;;;2.55;1.83;;;14.30;99.90;;;;;;5128216;27;20397;-73
2022/04/24 10:02:08;;;;;;;3.17;1.30;;;14.30;99.90;;;;;;5129218;27;20035;-74
2022/04/24 10:04:35;;;;;;;3.88;1.73;;;14.30;99.90;;;;;;5130591;27;20045;-72
2022/04/24 10:07:13;;;;;;;4.03;1.65;;;14.40;99.90;;;;;;5133749;27;20104;-73
2022/04/24 10:09:42;;;;;;;4.57;2.10;;;14.50;99.90;;;;;;5118502;27;20319;-73
2022/04/24 10:12:10;;;;;;;3.40;1.80;;;14.50;99.90;;;;;;5127672;27;20038;-73
2022/04/24 10:15:05;;;;;;;3.50;2.08;;;14.60;99.90;;;;;;5128234;27;20160;-72
2022/04/24 10:18:00;;;;;;;3.80;2.00;;;14.60;99.90;;;;;;5121610;27;20043;-73
2022/04/24 10:20:47;;;;;;;2.90;1.70;;;14.50;99.90;;;;;;5127528;27;20122;-75
2022/04/24 10:23:13;;;;;;;4.25;2.20;;;14.70;99.90;;;;;;5126544;27;20354;-73
2022/04/24 10:25:43;;;;;;;5.05;2.25;;;14.90;99.90;;;;;;5127795;27;20470;-79
2022/04/24 10:28:13;;;;;;;5.72;2.17;;;15.00;99.90;;;;;;5130488;27;20104;-77
2022/04/24 10:30:40;;;;;;;3.28;1.42;;;15.10;99.90;;;;;;5131033;27;20053;-77
2022/04/24 10:33:22;;;;;;;3.97;1.80;;;15.40;99.90;;;;;;5128735;27;20095;-79
2022/04/24 10:35:53;;;;;;;3.75;1.75;;;15.40;99.90;;;;;;5125822;27;20026;-80
2022/04/24 10:38:23;;;;;;;3.17;1.60;;;15.30;99.90;;;;;;5127568;27;20027;-80
2022/04/24 10:41:13;;;;;;;4.25;2.08;;;15.20;99.90;;;;;;5128597;27;20037;-79
2022/04/24 10:43:46;;;;;;;4.30;2.20;;;15.10;99.90;;;;;;5114079;27;20027;-79
2022/04/24 10:46:26;;;;;;;2.40;1.63;;;15.10;99.90;;;;;;5128934;27;20434;-79
2022/04/24 10:48:53;;;;;;;3.33;1.80;;;15.00;99.90;;;;;;5127317;27;20034;-78
2022/04/24 10:51:32;;;;;;;3.40;1.67;;;14.80;99.90;;;;;;5129822;27;20034;-78
2022/04/24 10:54:19;;;;;;;4.38;2.00;;;14.70;99.90;;;;;;5127389;27;20039;-76
2022/04/24 10:56:52;;;;;;;3.13;1.80;;;15.00;99.90;;;;;;5128062;27;20033;-77
2022/04/24 10:59:22;;;;;;;3.85;2.03;;;15.20;99.90;;;;;;5121341;27;20023;-75
2022/04/24 11:01:52;;;;;;;3.35;1.70;;;15.20;99.90;;;;;;5111460;27;20023;-78
2022/04/24 11:04:22;;;;;;;3.20;1.45;;;15.00;99.90;;;;;;5123938;27;20438;-78
2022/04/24 11:06:57;;;;;;;3.80;1.40;;;15.00;99.90;;;;;;5111084;27;20384;-79
2022/04/24 11:09:24;;;;;;;3.45;1.42;;;14.90;99.90;;;;;;5112846;27;20436;-80
2022/04/24 11:11:59;;;;;;;3.22;1.92;;;14.90;99.90;;;;;;5123219;27;20115;-80
2022/04/24 11:14:26;;;;;;;4.20;1.70;;;14.90;99.90;;;;;;5126281;27;20042;-80
2022/04/24 11:16:57;;;;;;;4.38;1.90;;;14.80;99.90;;;;;;5126060;27;20019;-78
2022/04/24 11:19:25;;;;;;;8.25;2.22;;;14.80;99.90;;;;;;5109775;27;20111;-80
2022/04/24 11:21:59;;;;;;;4.20;2.22;;;14.90;99.90;;;;;;5124609;27;20030;-78
2022/04/24 11:24:31;;;;;;;3.78;2.13;;;14.90;99.90;;;;;;5126430;27;20027;-78
2022/04/24 11:27:00;;;;;;;2.88;1.65;;;14.80;99.90;;;;;;5124513;27;20031;-79
2022/04/24 11:29:26;;;;;;;3.60;1.65;;;14.80;99.90;;;;;;5121778;27;20026;-78
2022/04/24 11:31:54;;;;;;;3.08;1.75;;;15.00;99.90;;;;;;5112353;27;20335;-78
2022/04/24 11:34:24;;;;;;;3.38;1.90;;;15.00;99.90;;;;;;5129769;27;20399;-79
2022/04/24 11:36:55;;;;;;;3.38;1.90;;;15.10;99.90;;;;;;5125540;27;20496;-78
2022/04/24 11:39:22;;;;;;;5.40;2.42;;;15.10;99.90;;;;;;5120478;27;20422;-80
2022/04/24 11:41:50;;;;;;;5.95;2.58;;;15.10;99.90;;;;;;5117303;27;20027;-80
2022/04/24 11:50:15;;;;;;;5.57;2.97;;;15.00;99.90;;;;;;5132684;27;20034;-80
2022/04/24 11:52:48;;;;;;;4.65;2.85;;;15.00;99.90;;;;;;5118494;27;20041;-77
2022/04/24 11:55:20;;;;;;;5.05;2.88;;;15.00;99.90;;;;;;5132583;27;20386;-78
2022/04/24 11:57:59;;;;;;;6.40;2.53;;;15.00;99.90;;;;;;5116210;27;20118;-80
2022/04/24 12:00:36;;;;;;;5.53;2.30;;;15.00;99.90;;;;;;5131730;27;20015;-80
2022/04/24 12:03:03;;;;;;;4.78;2.28;;;15.10;99.90;;;;;;5132371;27;20031;-79
2022/04/24 12:05:29;;;;;;;4.63;2.30;;;15.10;99.90;;;;;;5131525;27;20019;-76
2022/04/24 12:07:56;;;;;;;8.77;3.55;;;15.00;99.90;;;;;;5132501;27;20030;-75
2022/04/24 12:10:24;;;;;;;4.55;2.10;;;15.10;99.90;;;;;;5115929;27;20102;-75
2022/04/24 12:12:51;;;;;;;7.43;2.70;;;15.10;99.90;;;;;;5124866;27;20498;-75
2022/04/24 12:15:19;;;;;;;3.40;2.08;;;15.10;99.90;;;;;;5126838;27;20026;-82
2022/04/24 12:18:04;;;;;;;5.63;2.33;;;15.00;99.90;;;;;;5126677;27;20034;-77
2022/04/24 12:20:38;;;;;;;5.20;2.22;;;14.90;99.90;;;;;;5125573;27;20078;-76
2022/04/24 12:23:11;;;;;;;5.45;2.72;;;15.00;99.90;;;;;;5125874;27;20050;-78
2022/04/24 12:25:59;;;;;;;6.90;2.67;;;14.90;99.90;;;;;;5123408;27;20047;-77
2022/04/24 12:28:32;;;;;;;4.70;2.88;;;15.00;99.90;;;;;;5126309;27;20074;-78
2022/04/24 12:31:01;;;;;;;6.93;3.07;;;14.90;99.90;;;;;;5129172;27;20031;-77
2022/04/24 12:33:32;;;;;;;6.03;2.72;;;14.80;99.90;;;;;;5128313;27;20493;-78
2022/04/24 12:36:09;;;;;;;5.45;2.85;;;14.70;99.90;;;;;;5127471;27;20525;-77
2022/04/24 12:38:35;;;;;;;5.60;3.00;;;14.90;99.90;;;;;;5124053;27;20039;-77
2022/04/24 12:41:00;;;;;;;7.70;3.90;;;14.80;99.90;;;;;;5116172;27;20027;-77
2022/04/24 12:43:28;;;;;;;5.22;3.28;;;14.80;99.90;;;;;;5125001;27;20031;-75
2022/04/24 12:45:57;;;;;;;5.80;3.85;;;14.90;99.90;;;;;;5129598;27;20028;-76
2022/04/24 12:48:24;;;;;;;5.55;3.40;;;15.10;99.90;;;;;;5114686;27;20038;-75
2022/04/24 12:50:53;;;;;;;5.75;3.75;;;15.20;99.90;;;;;;5123315;27;20027;-76
2022/04/24 12:53:23;;;;;;;6.05;3.83;;;15.20;99.90;;;;;;5116775;27;20375;-76
2022/04/24 12:55:50;;;;;;;6.05;3.75;;;15.20;99.90;;;;;;5127451;27;20098;-76